NJE409 BIKF-LFPB
Flight info
| Callsign | NJE409 |
|---|---|
| Flight time | N/A |
| Altitude | 45000 |
| Route | RIMUM1C RIMUM DCT CELLO DCT 60N019W 56N18W 54N18W DCT DINIM DCT ELSOX DCT LULOX/N0432F450 DCT NAKID DCT ANNET UM25 INGOR UZ297 PEXIR |
| Aircraft | C68A/M-SDFGHRWY/SB1 |
Departure
| Time | 2026-04-29 01:58 |
|---|---|
| Airport | Keflavik International Airport (BIKF) |
Arrival
| Time | N/A |
|---|---|
| Airport | Paris-Le Bourget International Airport (LFPB) |
| Time | Latitude | Longitude | Altitude | Speed | Heading |
|---|---|---|---|---|---|
| 2026-04-29 01:16 | 63.97649 | -22.58845 | 139 ft | 0 kts | 112° |
| 2026-04-29 01:51 | 63.97653 | -22.58862 | 167 ft | 2 kts | 112° |
| 2026-04-29 01:51 | 63.97656 | -22.58898 | 167 ft | 2 kts | 69° |
| 2026-04-29 01:51 | 63.97648 | -22.58920 | 168 ft | 0 kts | 28° |
| 2026-04-29 01:53 | 63.97660 | -22.58928 | 168 ft | 5 kts | 322° |
| 2026-04-29 01:53 | 63.97697 | -22.58985 | 170 ft | 9 kts | 22° |
| 2026-04-29 01:53 | 63.97800 | -22.58892 | 169 ft | 22 kts | 22° |
| 2026-04-29 01:53 | 63.97940 | -22.58778 | 167 ft | 16 kts | 359° |
| 2026-04-29 01:54 | 63.98015 | -22.58850 | 168 ft | 9 kts | 335° |
| 2026-04-29 01:54 | 63.98086 | -22.58918 | 168 ft | 14 kts | 337° |
| 2026-04-29 01:54 | 63.98190 | -22.59017 | 169 ft | 18 kts | 338° |
| 2026-04-29 01:54 | 63.98322 | -22.59141 | 170 ft | 23 kts | 338° |
| 2026-04-29 01:55 | 63.98480 | -22.59282 | 170 ft | 25 kts | 347° |
| 2026-04-29 01:55 | 63.98659 | -22.59295 | 168 ft | 28 kts | 360° |
| 2026-04-29 01:55 | 63.98799 | -22.59337 | 165 ft | 17 kts | 343° |
| 2026-04-29 01:55 | 63.98906 | -22.59436 | 169 ft | 16 kts | 316° |
| 2026-04-29 01:56 | 63.98985 | -22.59616 | 170 ft | 17 kts | 315° |
| 2026-04-29 01:56 | 63.99093 | -22.59859 | 167 ft | 23 kts | 315° |
| 2026-04-29 01:56 | 63.99165 | -22.60026 | 167 ft | 12 kts | 304° |
| 2026-04-29 01:56 | 63.99173 | -22.60206 | 166 ft | 11 kts | 269° |
| 2026-04-29 01:57 | 63.99172 | -22.60389 | 166 ft | 11 kts | 271° |
| 2026-04-29 01:57 | 63.99155 | -22.60533 | 167 ft | 9 kts | 208° |
| 2026-04-29 01:57 | 63.98955 | -22.60541 | 167 ft | 68 kts | 180° |
| 2026-04-29 01:57 | 63.98161 | -22.60522 | 248 ft | 154 kts | 181° |
| 2026-04-29 01:58 | 63.96916 | -22.60459 | 881 ft | 206 kts | 181° |
| 2026-04-29 01:58 | 63.95422 | -22.60356 | 1982 ft | 211 kts | 182° |
| 2026-04-29 01:58 | 63.93954 | -22.60014 | 2725 ft | 222 kts | 163° |
| 2026-04-29 01:58 | 63.92665 | -22.58021 | 4283 ft | 225 kts | 150° |
| 2026-04-29 01:59 | 63.91337 | -22.56164 | 5619 ft | 225 kts | 161° |
| 2026-04-29 01:59 | 63.89904 | -22.54753 | 6837 ft | 229 kts | 165° |
| 2026-04-29 01:59 | 63.88436 | -22.53301 | 8123 ft | 232 kts | 164° |
| 2026-04-29 01:59 | 63.86952 | -22.51787 | 9450 ft | 235 kts | 166° |
| 2026-04-29 02:00 | 63.85462 | -22.50266 | 10967 ft | 236 kts | 167° |
| 2026-04-29 02:00 | 63.83947 | -22.48740 | 12336 ft | 241 kts | 167° |
| 2026-04-29 02:00 | 63.82404 | -22.47169 | 13710 ft | 245 kts | 168° |
| 2026-04-29 02:00 | 63.80837 | -22.45577 | 14908 ft | 248 kts | 168° |
| 2026-04-29 02:01 | 63.79247 | -22.43969 | 16109 ft | 251 kts | 169° |
| 2026-04-29 02:01 | 63.77641 | -22.42349 | 17280 ft | 254 kts | 169° |
| 2026-04-29 02:01 | 63.76012 | -22.40705 | 18379 ft | 258 kts | 169° |
| 2026-04-29 02:01 | 63.74363 | -22.39043 | 19317 ft | 261 kts | 169° |
| 2026-04-29 02:02 | 63.72693 | -22.37361 | 20222 ft | 265 kts | 169° |
| 2026-04-29 02:02 | 63.71000 | -22.35659 | 21116 ft | 268 kts | 169° |
| 2026-04-29 02:02 | 63.69286 | -22.33938 | 21999 ft | 271 kts | 169° |
| 2026-04-29 02:02 | 63.67548 | -22.32195 | 22873 ft | 275 kts | 169° |
| 2026-04-29 02:03 | 63.65798 | -22.30306 | 23665 ft | 281 kts | 167° |
| 2026-04-29 02:03 | 63.64054 | -22.28412 | 24369 ft | 283 kts | 168° |
| 2026-04-29 02:03 | 63.62265 | -22.26494 | 25062 ft | 286 kts | 168° |
| 2026-04-29 02:03 | 63.60459 | -22.24559 | 25756 ft | 289 kts | 168° |
| 2026-04-29 02:04 | 63.58608 | -22.22573 | 26439 ft | 292 kts | 168° |
| 2026-04-29 02:04 | 63.56789 | -22.20626 | 27103 ft | 295 kts | 168° |
| 2026-04-29 02:04 | 63.54927 | -22.18635 | 27743 ft | 299 kts | 168° |
| 2026-04-29 02:04 | 63.54009 | -22.17658 | 28034 ft | 301 kts | 168° |